Time;durP1;ratioP1;P1;durP2;ratioP2;P2;SDS_P1;SDS_P2;PMS_P1;PMS_P2;Temp;Humidity;BMP_temperature;BMP_pressure;BME280_temperature;BME280_humidity;BME280_pressure;Samples;Min_cycle;Max_cycle;Signal;HPM_P1;HPM_P2
2021/07/16 00:01:08;;;;;;;5.70;2.63;;;16.60;99.70;;;;;;5013991;28;20601;-68
2021/07/16 00:03:35;;;;;;;5.33;2.63;;;16.50;99.70;;;;;;5013459;28;20457;-68
2021/07/16 00:06:02;;;;;;;5.17;2.60;;;16.50;99.70;;;;;;5013279;28;20448;-68
2021/07/16 00:08:28;;;;;;;5.83;3.10;;;16.50;99.70;;;;;;5012608;28;20493;-68
2021/07/16 00:10:55;;;;;;;5.30;3.00;;;16.40;99.70;;;;;;5013328;28;20453;-68
2021/07/16 00:13:22;;;;;;;6.23;3.20;;;16.40;99.70;;;;;;5013316;28;20452;-68
2021/07/16 00:15:48;;;;;;;7.13;3.70;;;16.50;99.70;;;;;;5013190;28;20453;-68
2021/07/16 00:18:16;;;;;;;7.27;3.17;;;16.50;99.70;;;;;;5013174;28;20465;-68
2021/07/16 00:20:44;;;;;;;6.27;2.93;;;16.50;99.70;;;;;;5013472;28;20457;-68
2021/07/16 00:23:11;;;;;;;4.93;2.50;;;16.50;99.70;;;;;;5013085;28;20492;-68
2021/07/16 00:25:38;;;;;;;6.00;3.00;;;16.60;99.70;;;;;;5012541;28;20524;-68
2021/07/16 00:28:05;;;;;;;8.47;3.60;;;16.60;99.70;;;;;;5012914;28;20492;-68
2021/07/16 00:30:32;;;;;;;9.90;3.80;;;16.60;99.70;;;;;;5013044;28;20452;-67
2021/07/16 00:32:58;;;;;;;9.07;3.60;;;16.60;99.70;;;;;;5012973;28;20557;-68
2021/07/16 00:35:26;;;;;;;6.00;2.80;;;16.60;99.70;;;;;;5012758;28;20453;-68
2021/07/16 00:37:53;;;;;;;5.77;2.97;;;16.60;99.70;;;;;;5012761;28;20465;-67
2021/07/16 00:40:20;;;;;;;4.90;2.90;;;16.60;99.70;;;;;;5012901;28;20453;-68
2021/07/16 00:42:47;;;;;;;7.57;3.43;;;16.60;99.70;;;;;;5012805;28;20767;-68
2021/07/16 00:45:15;;;;;;;12.70;3.83;;;16.60;99.70;;;;;;5012461;28;20450;-68
2021/07/16 00:47:43;;;;;;;5.90;3.30;;;16.50;99.70;;;;;;5012559;28;20531;-67
2021/07/16 00:50:12;;;;;;;5.30;2.80;;;16.60;99.70;;;;;;5012730;28;20449;-67
2021/07/16 00:52:42;;;;;;;4.90;2.80;;;16.60;99.70;;;;;;5012573;28;20983;-67
2021/07/16 00:55:10;;;;;;;6.07;2.80;;;16.60;99.70;;;;;;5012223;28;20450;-68
2021/07/16 00:57:37;;;;;;;6.47;3.13;;;16.50;99.70;;;;;;5012370;28;20478;-68
2021/07/16 01:00:05;;;;;;;4.93;2.57;;;16.50;99.70;;;;;;5012474;28;20445;-68
2021/07/16 01:02:32;;;;;;;6.07;2.77;;;16.50;99.70;;;;;;5012426;28;20835;-68
2021/07/16 01:04:58;;;;;;;4.27;2.80;;;16.40;99.70;;;;;;5012172;28;20454;-68
2021/07/16 01:07:25;;;;;;;6.50;2.90;;;16.50;99.70;;;;;;5011756;28;20488;-68
2021/07/16 01:09:53;;;;;;;5.13;2.83;;;16.40;99.70;;;;;;5012192;28;20932;-68
2021/07/16 01:12:22;;;;;;;5.80;2.43;;;16.50;99.70;;;;;;5012280;28;20476;-68
2021/07/16 01:14:49;;;;;;;7.10;3.07;;;16.50;99.70;;;;;;5011833;28;20453;-67
2021/07/16 01:17:16;;;;;;;6.87;3.10;;;16.50;99.70;;;;;;5012202;28;20469;-68
2021/07/16 01:19:49;;;;;;;7.67;3.20;;;16.50;99.70;;;;;;5012117;28;20805;-68
2021/07/16 01:22:17;;;;;;;6.43;3.10;;;16.50;99.70;;;;;;5012069;28;20449;-67
2021/07/16 01:24:46;;;;;;;10.50;3.10;;;16.40;99.70;;;;;;5011704;28;20449;-68
2021/07/16 01:27:12;;;;;;;5.73;3.03;;;16.40;99.70;;;;;;5011869;28;20543;-68
2021/07/16 01:29:40;;;;;;;9.30;3.80;;;16.40;99.70;;;;;;5011945;28;20457;-68
2021/07/16 01:32:07;;;;;;;10.37;3.73;;;16.40;99.70;;;;;;5011946;28;20450;-67
2021/07/16 01:34:34;;;;;;;6.87;3.40;;;16.50;99.70;;;;;;5011674;28;20476;-68
2021/07/16 01:37:01;;;;;;;9.30;3.83;;;16.40;99.70;;;;;;5010956;28;20469;-68
2021/07/16 01:39:28;;;;;;;7.17;3.07;;;16.40;99.70;;;;;;5011969;28;20453;-68
2021/07/16 01:41:56;;;;;;;9.80;4.10;;;16.40;99.70;;;;;;5011725;28;20441;-68
2021/07/16 01:44:22;;;;;;;7.77;3.67;;;16.40;99.70;;;;;;5011383;28;20450;-68
2021/07/16 01:46:49;;;;;;;6.97;3.40;;;16.50;99.70;;;;;;5011640;28;20824;-68
2021/07/16 01:49:16;;;;;;;7.57;3.50;;;16.50;99.70;;;;;;5011560;28;20945;-67
2021/07/16 01:51:42;;;;;;;11.20;3.20;;;16.40;99.70;;;;;;5011802;28;20456;-68
2021/07/16 01:54:09;;;;;;;7.80;4.07;;;16.40;99.70;;;;;;5011152;28;20449;-66
2021/07/16 01:59:09;;;;;;;8.20;3.77;;;16.40;99.70;;;;;;5068241;28;20458;-63
2021/07/16 02:01:36;;;;;;;9.83;4.00;;;16.50;99.70;;;;;;5070033;28;20999;-65
2021/07/16 02:04:02;;;;;;;9.77;4.03;;;16.40;99.70;;;;;;5069469;28;20500;-64
2021/07/16 02:06:30;;;;;;;11.10;3.60;;;16.50;99.70;;;;;;5069547;28;20442;-65
2021/07/16 02:08:57;;;;;;;10.67;3.80;;;16.40;99.70;;;;;;5067682;28;20785;-67
2021/07/16 02:11:24;;;;;;;8.20;3.10;;;16.40;99.70;;;;;;5069825;28;20451;-66
2021/07/16 02:13:51;;;;;;;8.00;3.70;;;16.50;99.70;;;;;;5069488;28;20446;-64
2021/07/16 02:16:20;;;;;;;10.17;4.00;;;16.40;99.70;;;;;;5068998;28;20929;-66
2021/07/16 02:18:48;;;;;;;6.50;3.67;;;16.40;99.70;;;;;;5069356;28;20463;-64
2021/07/16 02:21:15;;;;;;;7.93;4.23;;;16.40;99.70;;;;;;5069378;28;20430;-66
2021/07/16 02:23:42;;;;;;;8.40;3.53;;;16.40;99.70;;;;;;5069342;28;20485;-66
2021/07/16 02:26:09;;;;;;;7.27;3.93;;;16.50;99.70;;;;;;5068755;28;20481;-65
2021/07/16 02:28:35;;;;;;;10.33;4.70;;;16.50;99.70;;;;;;5069249;28;20479;-66
2021/07/16 02:31:05;;;;;;;8.90;3.90;;;16.50;99.70;;;;;;5069475;28;20690;-62
2021/07/16 02:33:34;;;;;;;11.60;4.50;;;16.50;99.70;;;;;;5069260;28;20474;-68
2021/07/16 02:36:03;;;;;;;8.30;3.27;;;16.50;99.70;;;;;;5068736;28;20504;-66
2021/07/16 02:38:30;;;;;;;13.00;3.77;;;16.40;99.70;;;;;;5069144;28;20467;-65
2021/07/16 02:40:57;;;;;;;9.57;4.37;;;16.40;99.70;;;;;;5069263;28;20933;-66
2021/07/16 02:43:24;;;;;;;7.93;3.53;;;16.40;99.70;;;;;;5069182;28;20447;-66
2021/07/16 02:45:52;;;;;;;8.17;4.00;;;16.40;99.70;;;;;;5068442;28;20451;-65
2021/07/16 02:48:18;;;;;;;11.30;4.23;;;16.50;99.70;;;;;;5068833;28;20989;-66
2021/07/16 02:50:48;;;;;;;9.40;3.80;;;16.40;99.70;;;;;;5069122;28;20500;-66
2021/07/16 02:53:16;;;;;;;10.93;4.40;;;16.50;99.70;;;;;;5069192;28;20439;-66
2021/07/16 02:55:44;;;;;;;11.03;4.30;;;16.50;99.70;;;;;;5068399;28;20447;-65
2021/07/16 02:58:11;;;;;;;12.30;4.67;;;16.50;99.70;;;;;;5068992;28;20493;-65
2021/07/16 03:00:38;;;;;;;11.77;4.50;;;16.50;99.70;;;;;;5069212;28;20447;-65
2021/07/16 03:03:05;;;;;;;9.67;3.60;;;16.40;99.70;;;;;;5068850;28;20980;-64
2021/07/16 03:05:34;;;;;;;8.03;3.70;;;16.40;99.70;;;;;;5068278;28;20442;-68
2021/07/16 03:08:04;;;;;;;7.87;3.83;;;16.40;99.70;;;;;;5066850;28;20573;-67
2021/07/16 03:10:33;;;;;;;9.90;4.20;;;16.40;99.70;;;;;;5068805;28;20670;-66
2021/07/16 03:13:03;;;;;;;9.43;4.10;;;16.40;99.70;;;;;;5068897;28;20447;-66
2021/07/16 03:15:29;;;;;;;8.97;3.67;;;16.30;99.70;;;;;;5068005;28;20445;-65
2021/07/16 03:17:57;;;;;;;6.30;3.57;;;16.40;99.70;;;;;;5068764;28;20459;-66
2021/07/16 03:20:25;;;;;;;6.73;3.53;;;16.30;99.70;;;;;;5068867;28;20451;-65
2021/07/16 03:22:53;;;;;;;7.03;3.57;;;16.30;99.70;;;;;;5068766;28;20473;-65
2021/07/16 03:25:22;;;;;;;7.33;3.60;;;16.20;99.70;;;;;;5068026;28;20446;-65
2021/07/16 03:27:50;;;;;;;6.43;3.27;;;16.20;99.70;;;;;;5068646;28;20487;-66
2021/07/16 03:30:19;;;;;;;6.77;3.10;;;16.20;99.70;;;;;;5068765;28;20802;-65
2021/07/16 03:32:46;;;;;;;7.77;3.20;;;16.20;99.70;;;;;;5068571;28;20443;-65
2021/07/16 03:35:14;;;;;;;5.37;2.60;;;16.30;99.70;;;;;;5067998;28;20477;-65
2021/07/16 03:37:42;;;;;;;5.33;2.60;;;16.30;99.70;;;;;;5068736;28;20474;-65
2021/07/16 03:40:11;;;;;;;10.43;4.43;;;16.30;99.70;;;;;;5068632;28;20999;-66
2021/07/16 03:42:40;;;;;;;6.97;3.83;;;16.30;99.70;;;;;;5068418;28;20450;-63
2021/07/16 03:45:12;;;;;;;6.03;3.33;;;16.30;99.70;;;;;;5067888;28;20443;-66
2021/07/16 03:47:39;;;;;;;6.57;2.87;;;16.30;99.70;;;;;;5068389;28;20459;-65
2021/07/16 03:50:06;;;;;;;5.30;3.40;;;16.30;99.70;;;;;;5068445;28;20458;-66
2021/07/16 03:52:33;;;;;;;9.30;3.20;;;16.30;99.70;;;;;;5068323;28;20451;-65
2021/07/16 03:55:04;;;;;;;7.57;3.33;;;16.30;99.70;;;;;;5067935;28;20443;-65
2021/07/16 03:57:30;;;;;;;5.87;3.20;;;16.30;99.70;;;;;;5068415;28;20482;-65
2021/07/16 04:00:02;;;;;;;8.03;3.97;;;16.30;99.70;;;;;;5068900;28;20450;-65
2021/07/16 04:02:28;;;;;;;7.53;4.00;;;16.30;99.70;;;;;;5071838;28;20443;-65
2021/07/16 04:04:55;;;;;;;9.40;3.73;;;16.30;99.70;;;;;;5071280;28;20942;-65
2021/07/16 04:07:26;;;;;;;7.90;3.50;;;16.30;99.70;;;;;;5070028;28;20466;-65
2021/07/16 04:09:54;;;;;;;6.93;2.87;;;16.20;99.70;;;;;;5072006;28;20502;-66
2021/07/16 04:12:21;;;;;;;8.53;3.80;;;16.20;99.70;;;;;;5071813;28;20504;-63
2021/07/16 04:14:50;;;;;;;6.60;2.90;;;16.20;99.70;;;;;;5071125;28;20446;-65
2021/07/16 04:17:20;;;;;;;7.23;3.70;;;16.20;99.70;;;;;;5071752;28;20465;-66
2021/07/16 04:19:47;;;;;;;7.87;3.13;;;16.20;99.70;;;;;;5071939;28;20443;-64
2021/07/16 04:22:14;;;;;;;6.37;3.50;;;16.30;99.70;;;;;;5071728;28;20447;-65
2021/07/16 04:24:42;;;;;;;6.23;3.03;;;16.30;99.70;;;;;;5070992;28;20446;-65
2021/07/16 04:27:11;;;;;;;5.63;2.90;;;16.40;99.70;;;;;;5071611;28;20707;-65
2021/07/16 04:29:38;;;;;;;6.37;3.27;;;16.40;99.70;;;;;;5071653;28;20479;-67
2021/07/16 04:32:06;;;;;;;9.00;3.60;;;16.40;99.70;;;;;;5071609;28;20987;-66
2021/07/16 04:34:36;;;;;;;6.27;3.37;;;16.30;99.70;;;;;;5070682;28;21156;-65
2021/07/16 04:37:04;;;;;;;6.03;3.57;;;16.40;99.70;;;;;;5071331;28;20466;-65
2021/07/16 04:39:31;;;;;;;9.53;3.60;;;16.50;99.70;;;;;;5071617;28;20492;-66
2021/07/16 04:41:58;;;;;;;4.80;3.10;;;16.50;99.70;;;;;;5071488;28;20442;-65
2021/07/16 04:44:25;;;;;;;7.70;3.03;;;16.40;99.70;;;;;;5070631;28;20504;-66
2021/07/16 04:46:51;;;;;;;6.20;2.60;;;16.30;99.70;;;;;;5071282;28;20918;-65
2021/07/16 04:49:18;;;;;;;7.77;3.57;;;16.40;99.70;;;;;;5071241;28;20486;-66
2021/07/16 04:51:46;;;;;;;5.67;2.90;;;16.40;99.70;;;;;;5071199;28;20696;-65
2021/07/16 04:54:15;;;;;;;5.80;2.90;;;16.40;99.70;;;;;;5070395;28;20961;-65
2021/07/16 04:56:41;;;;;;;4.60;2.50;;;16.50;99.70;;;;;;5071059;28;20474;-67
2021/07/16 04:59:08;;;;;;;4.60;2.63;;;16.40;99.70;;;;;;5071049;28;20435;-66
2021/07/16 05:01:35;;;;;;;5.80;3.00;;;16.40;99.70;;;;;;5070942;28;20442;-62
2021/07/16 05:04:02;;;;;;;5.07;2.60;;;16.30;99.70;;;;;;5067174;28;20872;-67
2021/07/16 05:06:29;;;;;;;5.30;2.63;;;16.40;99.70;;;;;;5070358;28;20435;-66
2021/07/16 05:08:57;;;;;;;4.37;2.13;;;16.40;99.70;;;;;;5070366;28;20482;-65
2021/07/16 05:11:23;;;;;;;5.80;2.73;;;16.40;99.70;;;;;;5069505;28;20447;-65
2021/07/16 05:13:50;;;;;;;10.03;2.70;;;16.50;99.70;;;;;;5070496;28;20934;-67
2021/07/16 05:16:18;;;;;;;6.73;2.90;;;16.50;99.70;;;;;;5070777;28;20882;-65
2021/07/16 05:18:45;;;;;;;6.13;2.90;;;16.50;99.70;;;;;;5070879;28;20459;-65
2021/07/16 05:21:14;;;;;;;8.87;3.47;;;16.50;99.70;;;;;;5069702;28;20504;-66
2021/07/16 05:23:41;;;;;;;6.53;3.53;;;16.50;99.70;;;;;;5070384;28;20831;-66
2021/07/16 05:26:10;;;;;;;6.37;3.40;;;16.40;99.70;;;;;;5069711;28;20474;-66
2021/07/16 05:28:37;;;;;;;6.67;2.60;;;16.40;99.70;;;;;;5069708;28;20478;-66
2021/07/16 05:31:04;;;;;;;7.50;2.97;;;16.50;99.70;;;;;;5070639;28;20982;-65
2021/07/16 05:33:30;;;;;;;9.87;3.30;;;16.50;99.70;;;;;;5069712;28;20757;-64
2021/07/16 05:35:57;;;;;;;8.70;4.10;;;16.40;99.70;;;;;;5069793;28;20447;-64
2021/07/16 05:38:25;;;;;;;7.00;3.20;;;16.40;99.70;;;;;;5070216;28;20467;-65
2021/07/16 05:40:52;;;;;;;8.37;3.70;;;16.40;99.70;;;;;;5069888;28;20790;-65
2021/07/16 05:43:21;;;;;;;6.77;2.73;;;16.40;99.70;;;;;;5069790;28;20964;-65
2021/07/16 05:45:47;;;;;;;5.73;2.97;;;16.30;99.70;;;;;;5069800;28;20447;-66
2021/07/16 05:48:14;;;;;;;8.13;3.60;;;16.30;99.70;;;;;;5070427;28;20860;-65
2021/07/16 05:50:43;;;;;;;6.03;3.33;;;16.40;99.70;;;;;;5069919;28;20450;-66
2021/07/16 05:53:10;;;;;;;7.17;3.40;;;16.30;99.70;;;;;;5070668;28;20447;-66
2021/07/16 05:55:37;;;;;;;6.37;2.90;;;16.30;99.70;;;;;;5070104;28;20862;-65
2021/07/16 05:58:04;;;;;;;7.50;3.47;;;16.40;99.70;;;;;;5070340;28;20902;-65
2021/07/16 06:00:34;;;;;;;6.83;3.47;;;16.40;99.70;;;;;;5070097;28;20443;-65
2021/07/16 06:03:01;;;;;;;9.73;3.00;;;16.40;99.70;;;;;;5068445;28;20455;-65
2021/07/16 06:05:28;;;;;;;8.03;3.93;;;16.40;99.70;;;;;;5069938;28;20445;-64
2021/07/16 06:07:54;;;;;;;12.00;3.83;;;16.40;99.70;;;;;;5069063;28;21004;-65
2021/07/16 06:10:21;;;;;;;7.23;3.00;;;16.40;99.70;;;;;;5066284;28;20702;-65
2021/07/16 06:12:48;;;;;;;7.20;3.30;;;16.40;99.70;;;;;;5063484;28;20511;-66
2021/07/16 06:15:18;;;;;;;6.23;2.73;;;16.40;99.70;;;;;;5068822;28;20446;-64
2021/07/16 06:17:46;;;;;;;6.03;2.93;;;16.40;99.70;;;;;;5069802;28;20466;-65
2021/07/16 06:20:14;;;;;;;14.20;3.47;;;16.40;99.70;;;;;;5069815;28;20488;-65
2021/07/16 06:22:41;;;;;;;5.67;3.10;;;16.40;99.70;;;;;;5069411;28;20447;-65
2021/07/16 06:25:09;;;;;;;6.23;2.93;;;16.40;99.70;;;;;;5069131;28;20455;-65
2021/07/16 06:27:36;;;;;;;7.33;3.40;;;16.50;99.70;;;;;;5070007;28;20462;-65
2021/07/16 06:30:03;;;;;;;7.60;3.70;;;16.50;99.70;;;;;;5069532;28;20478;-64
2021/07/16 06:32:30;;;;;;;9.13;4.20;;;16.70;99.70;;;;;;5069016;28;20789;-67
2021/07/16 06:34:58;;;;;;;9.63;3.93;;;16.70;99.70;;;;;;5079463;28;20443;-65
2021/07/16 06:37:24;;;;;;;12.47;4.23;;;16.80;99.70;;;;;;5063118;28;20615;-66
2021/07/16 06:39:51;;;;;;;10.67;4.40;;;16.80;99.70;;;;;;5065682;28;20442;-65
2021/07/16 06:42:18;;;;;;;7.97;4.00;;;16.80;99.70;;;;;;5068663;28;20439;-65
2021/07/16 06:44:45;;;;;;;10.27;3.97;;;16.80;99.70;;;;;;5068033;28;20439;-65
2021/07/16 06:47:12;;;;;;;6.87;3.83;;;16.80;99.70;;;;;;5073390;28;20486;-65
2021/07/16 06:49:38;;;;;;;8.70;3.63;;;16.90;99.70;;;;;;5068502;28;20486;-65
2021/07/16 06:52:07;;;;;;;12.33;4.23;;;16.90;99.70;;;;;;5068127;28;20517;-65
2021/07/16 06:54:34;;;;;;;10.30;4.70;;;16.90;99.70;;;;;;5068438;28;20434;-65
2021/07/16 06:57:01;;;;;;;8.60;4.30;;;17.00;99.70;;;;;;5067926;28;20477;-66
2021/07/16 06:59:27;;;;;;;10.67;3.73;;;17.00;99.70;;;;;;5067717;28;20443;-65
2021/07/16 07:01:54;;;;;;;9.37;4.30;;;17.00;99.70;;;;;;5067999;28;20957;-65
2021/07/16 07:04:20;;;;;;;9.17;3.97;;;17.00;99.70;;;;;;5067314;28;20439;-67
2021/07/16 07:06:47;;;;;;;12.50;4.77;;;17.10;99.70;;;;;;5068066;28;20447;-66
2021/07/16 07:09:15;;;;;;;11.03;4.77;;;17.20;99.70;;;;;;5066770;28;20981;-66
2021/07/16 07:11:42;;;;;;;10.37;5.00;;;17.30;99.70;;;;;;5065127;28;20443;-67
2021/07/16 07:14:09;;;;;;;11.30;4.30;;;17.50;99.70;;;;;;5064535;28;20457;-65
2021/07/16 07:16:35;;;;;;;10.07;4.57;;;17.60;99.70;;;;;;5067160;28;20526;-65
2021/07/16 07:19:02;;;;;;;9.27;4.67;;;17.70;99.70;;;;;;5065845;28;20439;-65
2021/07/16 07:21:30;;;;;;;8.73;4.50;;;17.90;99.70;;;;;;5067302;28;20450;-66
2021/07/16 07:23:57;;;;;;;8.93;4.40;;;17.90;99.70;;;;;;5067950;28;20801;-65
2021/07/16 07:26:25;;;;;;;10.37;4.40;;;18.00;99.70;;;;;;5068551;28;20953;-66
2021/07/16 07:28:51;;;;;;;6.90;3.40;;;18.10;99.70;;;;;;5068629;28;20467;-66
2021/07/16 07:31:18;;;;;;;7.23;3.40;;;18.40;99.70;;;;;;5069414;28;20504;-66
2021/07/16 07:33:45;;;;;;;9.07;3.90;;;18.50;99.70;;;;;;5069140;28;20447;-67
2021/07/16 07:36:12;;;;;;;7.10;3.53;;;18.40;99.70;;;;;;5071186;28;20438;-65
2021/07/16 07:38:39;;;;;;;7.13;3.10;;;18.50;99.70;;;;;;5073140;28;20869;-66
2021/07/16 07:41:06;;;;;;;7.50;3.67;;;18.80;99.70;;;;;;5073092;28;21000;-67
2021/07/16 07:43:34;;;;;;;8.63;3.63;;;19.10;99.70;;;;;;5073011;28;21024;-66
2021/07/16 07:46:00;;;;;;;7.33;4.10;;;19.20;99.70;;;;;;5068082;28;20447;-66
2021/07/16 07:48:27;;;;;;;6.40;3.57;;;19.40;99.70;;;;;;5053140;28;20459;-66
2021/07/16 07:50:54;;;;;;;8.90;4.80;;;19.40;99.70;;;;;;5052561;28;21070;-66
2021/07/16 07:53:20;;;;;;;6.93;3.80;;;19.40;99.70;;;;;;5052861;28;20465;-65
2021/07/16 07:55:47;;;;;;;8.27;4.20;;;19.30;99.70;;;;;;5052340;28;20482;-66
2021/07/16 07:58:14;;;;;;;6.67;3.20;;;19.30;99.70;;;;;;5083176;22;20495;-65
2021/07/16 08:00:42;;;;;;;9.80;3.73;;;19.40;99.70;;;;;;5052176;28;20926;-64
2021/07/16 08:03:10;;;;;;;9.03;3.60;;;19.40;99.70;;;;;;5053055;28;20462;-67
2021/07/16 08:05:37;;;;;;;9.03;4.27;;;19.50;99.70;;;;;;5052533;28;20443;-64
2021/07/16 08:08:04;;;;;;;10.83;4.43;;;19.50;99.70;;;;;;5064919;28;20864;-65
2021/07/16 08:10:31;;;;;;;9.40;4.40;;;19.50;99.70;;;;;;5071336;28;20894;-65
2021/07/16 08:12:58;;;;;;;10.00;3.93;;;19.60;99.70;;;;;;5071501;28;20856;-65
2021/07/16 08:15:24;;;;;;;8.97;4.07;;;19.50;99.70;;;;;;5072606;28;20446;-65
2021/07/16 08:17:53;;;;;;;9.07;4.13;;;19.60;99.70;;;;;;5072545;28;20497;-65
2021/07/16 08:20:19;;;;;;;8.67;3.60;;;19.60;99.70;;;;;;5072867;28;20912;-64
2021/07/16 08:22:46;;;;;;;9.77;3.90;;;19.50;99.70;;;;;;5072229;28;20451;-64
2021/07/16 08:25:14;;;;;;;8.87;3.77;;;19.70;99.70;;;;;;5072241;28;20458;-65
2021/07/16 08:27:41;;;;;;;9.77;4.10;;;19.60;99.70;;;;;;5072546;28;20462;-65
2021/07/16 08:30:09;;;;;;;8.27;3.47;;;19.60;99.70;;;;;;5072542;28;20482;-65
2021/07/16 08:32:36;;;;;;;6.60;3.40;;;19.50;99.70;;;;;;5072288;28;20938;-64
2021/07/16 08:35:06;;;;;;;7.43;3.30;;;19.40;99.70;;;;;;5072377;28;20483;-64
2021/07/16 08:37:34;;;;;;;8.03;3.70;;;19.30;99.70;;;;;;5072255;28;20469;-65
2021/07/16 08:40:01;;;;;;;7.30;3.40;;;19.10;99.70;;;;;;5058468;28;20452;-64
2021/07/16 08:42:28;;;;;;;7.93;4.00;;;19.00;99.70;;;;;;5052137;28;20475;-65
2021/07/16 08:44:55;;;;;;;7.43;3.27;;;19.00;99.70;;;;;;5052102;28;20831;-65
2021/07/16 08:47:22;;;;;;;8.00;3.60;;;19.30;99.70;;;;;;5052059;28;20455;-66
2021/07/16 08:49:49;;;;;;;7.40;3.87;;;19.50;99.70;;;;;;5051964;28;20545;-65
2021/07/16 08:52:17;;;;;;;6.90;3.33;;;19.60;99.70;;;;;;5051975;28;20447;-64
2021/07/16 08:54:47;;;;;;;7.97;3.63;;;19.60;99.70;;;;;;5051029;28;21012;-65
2021/07/16 08:57:15;;;;;;;7.00;3.67;;;19.60;99.70;;;;;;5051394;28;20440;-65
2021/07/16 08:59:42;;;;;;;7.13;3.90;;;19.60;99.70;;;;;;5051742;28;20556;-65
2021/07/16 09:02:10;;;;;;;7.77;3.57;;;19.80;99.70;;;;;;5051979;28;20905;-66
2021/07/16 09:04:38;;;;;;;6.50;3.53;;;20.00;99.70;;;;;;5051514;28;20483;-65
2021/07/16 09:07:05;;;;;;;8.73;3.63;;;20.00;99.70;;;;;;5051961;28;20898;-65
2021/07/16 09:09:37;;;;;;;6.50;3.67;;;19.90;99.70;;;;;;5051190;28;20483;-65
2021/07/16 09:12:08;;;;;;;6.50;3.63;;;20.00;99.70;;;;;;5051845;28;20443;-65
2021/07/16 09:14:35;;;;;;;7.83;3.67;;;20.00;99.70;;;;;;5051007;28;20450;-67
2021/07/16 09:17:05;;;;;;;5.37;3.10;;;20.00;99.70;;;;;;5051646;28;20825;-66
2021/07/16 09:19:35;;;;;;;5.60;3.20;;;20.00;99.70;;;;;;5051507;28;20470;-65
2021/07/16 09:22:05;;;;;;;5.40;3.10;;;19.90;99.70;;;;;;5051402;28;20458;-66
2021/07/16 09:24:34;;;;;;;7.13;3.47;;;20.10;99.70;;;;;;5050959;28;20448;-65
2021/07/16 09:27:02;;;;;;;4.50;2.87;;;20.50;99.70;;;;;;5051529;28;20448;-65
2021/07/16 09:29:30;;;;;;;5.30;3.03;;;20.70;99.70;;;;;;5051476;28;20886;-65
2021/07/16 09:32:05;;;;;;;4.50;2.87;;;20.80;99.70;;;;;;5051330;28;20446;-65
2021/07/16 09:34:32;;;;;;;5.60;3.37;;;20.80;99.70;;;;;;5051116;28;20450;-66
2021/07/16 09:37:07;;;;;;;6.13;3.27;;;20.60;99.70;;;;;;5050988;28;20939;-64
2021/07/16 09:39:35;;;;;;;5.10;3.27;;;20.30;99.70;;;;;;5051014;28;20502;-66
2021/07/16 09:42:03;;;;;;;7.60;3.40;;;20.00;99.70;;;;;;5049812;28;20824;-65
2021/07/16 09:44:32;;;;;;;5.80;3.30;;;19.90;99.70;;;;;;5050827;28;20451;-66
2021/07/16 09:47:13;;;;;;;6.87;3.10;;;20.00;99.70;;;;;;5050822;28;20451;-65
2021/07/16 09:49:41;;;;;;;5.83;3.10;;;19.90;99.70;;;;;;5050815;28;20487;-65
2021/07/16 09:52:10;;;;;;;5.43;3.10;;;20.00;99.70;;;;;;5050856;28;20444;-65
2021/07/16 09:54:38;;;;;;;5.30;3.03;;;20.00;99.70;;;;;;5050629;28;20447;-66
2021/07/16 09:57:05;;;;;;;4.77;2.87;;;20.20;99.70;;;;;;5050783;28;20498;-65
2021/07/16 09:59:32;;;;;;;4.00;2.50;;;21.30;99.70;;;;;;5050107;28;20475;-66
2021/07/16 10:01:59;;;;;;;4.73;2.67;;;22.20;99.70;;;;;;5050597;28;20823;-65
2021/07/16 10:04:32;;;;;;;4.57;2.70;;;23.10;99.70;;;;;;5050427;28;20443;-66
2021/07/16 10:07:00;;;;;;;3.73;2.30;;;23.20;99.70;;;;;;5050632;28;20451;-65
2021/07/16 10:09:26;;;;;;;5.47;2.90;;;23.70;99.70;;;;;;5050288;28;20854;-66
2021/07/16 10:11:56;;;;;;;4.20;2.60;;;24.10;99.70;;;;;;5050492;28;20758;-64
2021/07/16 10:14:23;;;;;;;4.30;2.60;;;24.50;99.70;;;;;;5050252;28;20254;-66
2021/07/16 10:16:52;;;;;;;4.77;3.00;;;24.20;99.70;;;;;;5050530;28;20208;-65
2021/07/16 10:19:19;;;;;;;4.27;2.40;;;23.80;99.70;;;;;;5050341;28;20228;-66
2021/07/16 10:21:46;;;;;;;4.33;2.70;;;23.50;99.70;;;;;;5050099;28;20446;-66
2021/07/16 10:24:14;;;;;;;5.00;2.60;;;23.40;99.70;;;;;;5049699;28;20443;-66
2021/07/16 10:26:43;;;;;;;3.67;2.50;;;23.10;99.70;;;;;;5050299;28;20443;-65
2021/07/16 10:29:37;;;;;;;5.07;2.53;;;22.90;99.70;;;;;;5050195;28;20498;-65
2021/07/16 10:32:04;;;;;;;4.93;2.87;;;22.60;99.70;;;;;;5050428;28;20474;-65
2021/07/16 10:34:34;;;;;;;4.63;2.80;;;22.20;99.70;;;;;;5049699;28;20435;-65
2021/07/16 10:37:04;;;;;;;4.70;2.50;;;22.20;99.70;;;;;;5050246;28;20443;-65
2021/07/16 10:39:50;;;;;;;4.73;3.50;;;22.20;99.70;;;;;;5048734;28;20502;-65
2021/07/16 10:42:39;;;;;;;4.03;2.53;;;22.50;99.70;;;;;;5050057;28;20443;-65
2021/07/16 10:45:10;;;;;;;4.63;2.50;;;22.50;99.70;;;;;;5049730;28;20478;-65
2021/07/16 10:47:38;;;;;;;3.43;2.30;;;22.40;99.70;;;;;;5050824;28;20459;-65
2021/07/16 10:50:06;;;;;;;6.93;2.60;;;22.40;99.70;;;;;;5050094;28;20795;-66
2021/07/16 10:52:44;;;;;;;4.03;2.47;;;22.60;99.70;;;;;;5049795;28;20436;-66
2021/07/16 10:55:11;;;;;;;4.20;2.57;;;22.70;99.70;;;;;;5049578;28;20578;-67
2021/07/16 10:57:43;;;;;;;4.23;2.60;;;22.80;99.70;;;;;;5049662;28;20474;-64
2021/07/16 11:00:14;;;;;;;5.50;2.40;;;22.40;99.70;;;;;;5050076;28;20443;-67
2021/07/16 11:02:45;;;;;;;3.23;2.20;;;22.10;99.70;;;;;;5049743;28;20958;-65
2021/07/16 11:05:55;;;;;;;2.77;2.00;;;22.20;99.70;;;;;;5048250;28;20445;-66
2021/07/16 11:08:49;;;;;;;4.63;2.50;;;22.40;99.70;;;;;;5024527;28;20465;-66
2021/07/16 11:11:17;;;;;;;4.20;2.40;;;22.20;99.70;;;;;;5033812;28;20476;-65
2021/07/16 11:13:45;;;;;;;3.47;2.20;;;22.40;99.70;;;;;;5037480;28;20579;-65
2021/07/16 11:16:44;;;;;;;2.33;1.73;;;22.30;99.70;;;;;;5043712;28;20951;-65
2021/07/16 11:19:25;;;;;;;2.67;1.80;;;22.50;99.70;;;;;;5059643;28;20541;-65
2021/07/16 11:22:02;;;;;;;3.43;2.30;;;22.20;99.70;;;;;;5072175;28;20465;-65
2021/07/16 11:24:34;;;;;;;3.63;2.53;;;21.90;99.70;;;;;;5053415;28;20454;-65
2021/07/16 11:27:04;;;;;;;8.70;3.97;;;21.90;99.70;;;;;;5053830;28;20447;-65
2021/07/16 11:29:34;;;;;;;5.93;3.03;;;21.90;99.70;;;;;;5053751;28;20948;-65
2021/07/16 11:32:06;;;;;;;4.27;2.67;;;21.90;99.70;;;;;;5053402;28;20835;-65
2021/07/16 11:34:33;;;;;;;3.07;1.97;;;22.00;99.70;;;;;;5058789;28;20443;-65
2021/07/16 11:37:00;;;;;;;3.20;2.07;;;22.00;99.70;;;;;;5073462;28;20945;-65
2021/07/16 11:39:28;;;;;;;3.40;2.20;;;22.10;99.70;;;;;;5066755;28;20854;-65
2021/07/16 11:41:55;;;;;;;3.27;1.97;;;22.40;99.70;;;;;;5058039;28;20442;-65
2021/07/16 11:44:32;;;;;;;6.17;2.30;;;22.50;99.70;;;;;;5072954;28;20813;-65
2021/07/16 11:46:59;;;;;;;3.50;2.10;;;22.50;99.70;;;;;;5073203;28;20968;-65
2021/07/16 11:49:29;;;;;;;4.43;2.23;;;22.70;99.70;;;;;;5073244;28;20496;-64
2021/07/16 11:52:01;;;;;;;2.90;2.00;;;22.80;99.70;;;;;;5073218;28;21016;-65
2021/07/16 11:54:29;;;;;;;2.80;2.07;;;22.70;99.70;;;;;;5072726;28;20937;-65
2021/07/16 11:56:57;;;;;;;2.83;1.93;;;22.90;99.70;;;;;;5073597;28;20442;-65
2021/07/16 11:59:25;;;;;;;2.90;1.80;;;23.20;99.70;;;;;;5072904;28;20545;-65
2021/07/16 12:02:06;;;;;;;3.17;2.10;;;23.20;99.70;;;;;;5073321;28;20833;-66
2021/07/16 12:04:34;;;;;;;2.30;1.70;;;23.10;99.70;;;;;;5072406;28;20961;-65
2021/07/16 12:07:02;;;;;;;2.33;1.90;;;23.00;99.70;;;;;;5057115;28;20515;-66
2021/07/16 12:09:31;;;;;;;2.47;1.97;;;23.10;99.70;;;;;;5052287;28;20654;-66
2021/07/16 12:12:02;;;;;;;3.33;2.20;;;22.60;99.70;;;;;;5065790;28;20501;-66
2021/07/16 12:14:28;;;;;;;3.03;2.17;;;22.40;99.70;;;;;;5072126;28;20439;-65
2021/07/16 12:16:56;;;;;;;4.20;2.27;;;22.20;99.70;;;;;;5073121;28;20446;-66
2021/07/16 12:19:22;;;;;;;3.40;1.80;;;22.10;99.70;;;;;;5072059;28;20478;-65
2021/07/16 12:21:52;;;;;;;2.97;2.00;;;21.90;99.70;;;;;;5072272;28;20451;-66
2021/07/16 12:24:19;;;;;;;3.20;2.00;;;21.80;99.70;;;;;;5071863;28;20442;-66
2021/07/16 12:26:45;;;;;;;3.37;2.00;;;21.60;99.70;;;;;;5072075;28;20490;-66
2021/07/16 12:29:12;;;;;;;4.20;2.30;;;21.50;99.70;;;;;;5072402;28;20553;-66
2021/07/16 12:31:39;;;;;;;3.80;2.40;;;21.50;99.70;;;;;;5072487;28;20489;-66
2021/07/16 12:34:20;;;;;;;2.90;2.07;;;21.20;99.70;;;;;;5072212;28;20794;-66
2021/07/16 12:36:49;;;;;;;3.87;2.23;;;21.20;99.70;;;;;;5071698;28;20954;-66
2021/07/16 12:39:22;;;;;;;3.90;2.60;;;21.10;99.70;;;;;;5067154;28;20480;-66
2021/07/16 12:41:49;;;;;;;2.93;1.90;;;21.00;99.70;;;;;;5051883;28;20473;-66
2021/07/16 12:44:17;;;;;;;3.50;2.37;;;21.00;99.70;;;;;;5055830;28;20444;-66
2021/07/16 12:46:44;;;;;;;3.20;2.30;;;20.90;99.70;;;;;;5052116;28;20815;-66
2021/07/16 12:49:12;;;;;;;4.00;2.63;;;20.80;99.70;;;;;;5051928;28;20474;-66
2021/07/16 12:51:40;;;;;;;4.63;2.10;;;20.90;99.70;;;;;;5051875;28;20479;-66
2021/07/16 12:54:17;;;;;;;2.77;1.97;;;20.90;99.70;;;;;;5051592;28;20479;-66